sensor_id;sensor_type;location;lat;lon;timestamp;pressure;altitude;pressure_sealevel;temperature;humidity
69318;BME280;56457;52.190;4.440;2023-01-16T00:00:08;99589.78;;;4.37;100.00
69318;BME280;56457;52.190;4.440;2023-01-16T00:01:09;99582.00;;;4.37;100.00
69318;BME280;56457;52.190;4.440;2023-01-16T00:02:10;99579.41;;;4.36;100.00
69318;BME280;56457;52.190;4.440;2023-01-16T00:03:10;99569.06;;;4.25;100.00
69318;BME280;56457;52.190;4.440;2023-01-16T00:04:10;99573.38;;;4.26;100.00
69318;BME280;56457;52.190;4.440;2023-01-16T00:05:11;99559.47;;;4.44;100.00
69318;BME280;56457;52.190;4.440;2023-01-16T00:06:11;99558.59;;;4.40;100.00
69318;BME280;56457;52.190;4.440;2023-01-16T00:07:11;99568.16;;;4.37;100.00
69318;BME280;56457;52.190;4.440;2023-01-16T00:08:12;99568.16;;;4.37;100.00
69318;BME280;56457;52.190;4.440;2023-01-16T00:09:12;99562.06;;;4.44;100.00
69318;BME280;56457;52.190;4.440;2023-01-16T00:10:13;99560.38;;;4.32;100.00
69318;BME280;56457;52.190;4.440;2023-01-16T00:11:13;99554.28;;;4.41;100.00
69318;BME280;56457;52.190;4.440;2023-01-16T00:12:13;99552.59;;;4.32;100.00
69318;BME280;56457;52.190;4.440;2023-01-16T00:13:14;99546.53;;;4.31;100.00
69318;BME280;56457;52.190;4.440;2023-01-16T00:14:14;99538.69;;;4.45;100.00
69318;BME280;56457;52.190;4.440;2023-01-16T00:15:14;99545.63;;;4.45;100.00
69318;BME280;56457;52.190;4.440;2023-01-16T00:16:15;99537.00;;;4.37;100.00
69318;BME280;56457;52.190;4.440;2023-01-16T00:17:15;99545.63;;;4.39;100.00
69318;BME280;56457;52.190;4.440;2023-01-16T00:18:15;99542.19;;;4.41;100.00
69318;BME280;56457;52.190;4.440;2023-01-16T00:19:16;99536.13;;;4.35;100.00
69318;BME280;56457;52.190;4.440;2023-01-16T00:20:16;99543.06;;;4.37;100.00
69318;BME280;56457;52.190;4.440;2023-01-16T00:21:17;99544.78;;;4.37;100.00
69318;BME280;56457;52.190;4.440;2023-01-16T00:22:18;99537.00;;;4.37;100.00
69318;BME280;56457;52.190;4.440;2023-01-16T00:23:19;99536.13;;;4.36;100.00
69318;BME280;56457;52.190;4.440;2023-01-16T00:24:19;99530.06;;;4.39;100.00
69318;BME280;56457;52.190;4.440;2023-01-16T00:25:19;99529.19;;;4.38;100.00
69318;BME280;56457;52.190;4.440;2023-01-16T00:26:20;99528.34;;;4.36;100.00
69318;BME280;56457;52.190;4.440;2023-01-16T00:27:20;99527.47;;;4.32;100.00
69318;BME280;56457;52.190;4.440;2023-01-16T00:28:20;99525.78;;;4.25;100.00
69318;BME280;56457;52.190;4.440;2023-01-16T00:29:20;99522.34;;;4.17;100.00
69318;BME280;56457;52.190;4.440;2023-01-16T00:30:21;99513.69;;;4.20;100.00
69318;BME280;56457;52.190;4.440;2023-01-16T00:31:22;99518.91;;;4.11;100.00
69318;BME280;56457;52.190;4.440;2023-01-16T00:32:25;99525.81;;;4.16;100.00
69318;BME280;56457;52.190;4.440;2023-01-16T00:33:25;99520.63;;;4.16;100.00
69318;BME280;56457;52.190;4.440;2023-01-16T00:34:26;99517.16;;;4.23;100.00
69318;BME280;56457;52.190;4.440;2023-01-16T00:35:26;99513.66;;;4.24;100.00
69318;BME280;56457;52.190;4.440;2023-01-16T00:36:26;99506.75;;;4.20;100.00
69318;BME280;56457;52.190;4.440;2023-01-16T00:37:27;99507.63;;;4.22;100.00
69318;BME280;56457;52.190;4.440;2023-01-16T00:38:27;99509.34;;;4.22;100.00
69318;BME280;56457;52.190;4.440;2023-01-16T00:39:27;99504.19;;;4.17;100.00
69318;BME280;56457;52.190;4.440;2023-01-16T00:40:28;99505.03;;;4.18;100.00
69318;BME280;56457;52.190;4.440;2023-01-16T00:41:28;99504.19;;;4.17;100.00
69318;BME280;56457;52.190;4.440;2023-01-16T00:42:28;99496.38;;;4.14;100.00
69318;BME280;56457;52.190;4.440;2023-01-16T00:43:28;99493.78;;;4.17;100.00
69318;BME280;56457;52.190;4.440;2023-01-16T00:44:29;99491.16;;;4.22;100.00
69318;BME280;56457;52.190;4.440;2023-01-16T00:45:29;99492.00;;;4.28;100.00
69318;BME280;56457;52.190;4.440;2023-01-16T00:46:29;99492.91;;;4.29;100.00
69318;BME280;56457;52.190;4.440;2023-01-16T00:47:30;99483.38;;;4.26;100.00
69318;BME280;56457;52.190;4.440;2023-01-16T00:48:30;99483.41;;;4.23;100.00
69318;BME280;56457;52.190;4.440;2023-01-16T00:49:30;99480.78;;;4.20;100.00
69318;BME280;56457;52.190;4.440;2023-01-16T00:50:31;99479.06;;;4.22;100.00
69318;BME280;56457;52.190;4.440;2023-01-16T00:51:31;99472.16;;;4.23;100.00
69318;BME280;56457;52.190;4.440;2023-01-16T00:52:31;99471.31;;;4.16;100.00
69318;BME280;56457;52.190;4.440;2023-01-16T00:53:31;99470.44;;;4.08;100.00
69318;BME280;56457;52.190;4.440;2023-01-16T00:54:32;99457.50;;;4.07;100.00
69318;BME280;56457;52.190;4.440;2023-01-16T00:55:33;99460.09;;;4.05;100.00
69318;BME280;56457;52.190;4.440;2023-01-16T00:56:33;99462.69;;;4.02;100.00
69318;BME280;56457;52.190;4.440;2023-01-16T00:57:34;99454.91;;;4.02;100.00
69318;BME280;56457;52.190;4.440;2023-01-16T00:58:34;99454.03;;;4.03;100.00
69318;BME280;56457;52.190;4.440;2023-01-16T00:59:35;99458.38;;;3.96;100.00
69318;BME280;56457;52.190;4.440;2023-01-16T01:00:36;99450.59;;;3.99;100.00
69318;BME280;56457;52.190;4.440;2023-01-16T01:01:37;99441.94;;;3.99;100.00
69318;BME280;56457;52.190;4.440;2023-01-16T01:02:37;99441.94;;;4.00;100.00
69318;BME280;56457;52.190;4.440;2023-01-16T01:03:38;99447.13;;;4.02;100.00
69318;BME280;56457;52.190;4.440;2023-01-16T01:04:38;99443.66;;;4.01;100.00
69318;BME280;56457;52.190;4.440;2023-01-16T01:05:38;99428.09;;;4.04;100.00
69318;BME280;56457;52.190;4.440;2023-01-16T01:06:39;99437.59;;;4.05;100.00
69318;BME280;56457;52.190;4.440;2023-01-16T01:07:39;99436.75;;;4.05;100.00
69318;BME280;56457;52.190;4.440;2023-01-16T01:08:40;99428.09;;;4.00;100.00
69318;BME280;56457;52.190;4.440;2023-01-16T01:09:40;99429.84;;;3.98;100.00
69318;BME280;56457;52.190;4.440;2023-01-16T01:10:40;99428.97;;;3.96;100.00
69318;BME280;56457;52.190;4.440;2023-01-16T01:11:41;99423.78;;;3.96;100.00
69318;BME280;56457;52.190;4.440;2023-01-16T01:12:41;99411.66;;;4.01;100.00
69318;BME280;56457;52.190;4.440;2023-01-16T01:13:41;99422.06;;;3.98;100.00
69318;BME280;56457;52.190;4.440;2023-01-16T01:14:42;99422.94;;;3.98;100.00
69318;BME280;56457;52.190;4.440;2023-01-16T01:15:42;99409.06;;;4.01;100.00
69318;BME280;56457;52.190;4.440;2023-01-16T01:16:42;99412.53;;;4.00;100.00
69318;BME280;56457;52.190;4.440;2023-01-16T01:17:43;99413.44;;;3.88;100.00
69318;BME280;56457;52.190;4.440;2023-01-16T01:18:43;99411.72;;;3.87;100.00
69318;BME280;56457;52.190;4.440;2023-01-16T01:19:43;99407.38;;;3.88;100.00
69318;BME280;56457;52.190;4.440;2023-01-16T01:20:43;99412.50;;;4.03;100.00
69318;BME280;56457;52.190;4.440;2023-01-16T01:21:44;99409.06;;;4.01;100.00
69318;BME280;56457;52.190;4.440;2023-01-16T01:22:45;99408.19;;;4.05;100.00
69318;BME280;56457;52.190;4.440;2023-01-16T01:23:46;99406.44;;;4.07;100.00
69318;BME280;56457;52.190;4.440;2023-01-16T01:24:47;99412.53;;;3.97;100.00
69318;BME280;56457;52.190;4.440;2023-01-16T01:25:48;99402.97;;;4.03;100.00
69318;BME280;56457;52.190;4.440;2023-01-16T01:26:49;99403.00;;;4.05;100.00
69318;BME280;56457;52.190;4.440;2023-01-16T01:27:49;99413.38;;;4.05;100.00
69318;BME280;56457;52.190;4.440;2023-01-16T01:28:49;99405.59;;;4.07;100.00
69318;BME280;56457;52.190;4.440;2023-01-16T01:29:50;99411.63;;;4.12;100.00
69318;BME280;56457;52.190;4.440;2023-01-16T01:30:50;99398.66;;;4.10;100.00
69318;BME280;56457;52.190;4.440;2023-01-16T01:31:50;99401.25;;;4.10;100.00
69318;BME280;56457;52.190;4.440;2023-01-16T01:32:50;99402.06;;;4.18;100.00
69318;BME280;56457;52.190;4.440;2023-01-16T01:33:51;99397.75;;;4.16;100.00
69318;BME280;56457;52.190;4.440;2023-01-16T01:34:52;99392.56;;;4.17;100.00
69318;BME280;56457;52.190;4.440;2023-01-16T01:35:52;99392.50;;;4.22;100.00
69318;BME280;56457;52.190;4.440;2023-01-16T01:36:52;99397.75;;;4.14;100.00
69318;BME280;56457;52.190;4.440;2023-01-16T01:37:52;99391.69;;;4.15;100.00
69318;BME280;56457;52.190;4.440;2023-01-16T01:38:53;99389.94;;;4.19;100.00
69318;BME280;56457;52.190;4.440;2023-01-16T01:39:53;99384.75;;;4.23;100.00
69318;BME280;56457;52.190;4.440;2023-01-16T01:40:53;99382.13;;;4.22;100.00
69318;BME280;56457;52.190;4.440;2023-01-16T01:41:54;99378.69;;;4.20;100.00
69318;BME280;56457;52.190;4.440;2023-01-16T01:43:14;99383.88;;;4.24;100.00
69318;BME280;56457;52.190;4.440;2023-01-16T01:45:34;99374.34;;;4.23;100.00
69318;BME280;56457;52.190;4.440;2023-01-16T01:46:43;99375.16;;;4.28;100.00
69318;BME280;56457;52.190;4.440;2023-01-16T01:47:46;99376.03;;;4.27;100.00
69318;BME280;56457;52.190;4.440;2023-01-16T01:48:50;99375.13;;;4.35;100.00
69318;BME280;56457;52.190;4.440;2023-01-16T01:49:51;99367.41;;;4.27;100.00
69318;BME280;56457;52.190;4.440;2023-01-16T01:50:57;99358.75;;;4.22;100.00
69318;BME280;56457;52.190;4.440;2023-01-16T01:52:00;99355.38;;;4.12;100.00
69318;BME280;56457;52.190;4.440;2023-01-16T01:53:03;99363.13;;;4.20;100.00
69318;BME280;56457;52.190;4.440;2023-01-16T01:55:06;99349.25;;;4.21;100.00
69318;BME280;56457;52.190;4.440;2023-01-16T01:56:13;99349.28;;;4.18;100.00
69318;BME280;56457;52.190;4.440;2023-01-16T01:57:16;99351.88;;;4.15;100.00
69318;BME280;56457;52.190;4.440;2023-01-16T01:58:18;99346.72;;;4.13;100.00
69318;BME280;56457;52.190;4.440;2023-01-16T01:59:23;99345.81;;;4.16;100.00
69318;BME280;56457;52.190;4.440;2023-01-16T02:00:25;99331.13;;;4.15;100.00
69318;BME280;56457;52.190;4.440;2023-01-16T02:01:26;99328.50;;;4.22;100.00
69318;BME280;56457;52.190;4.440;2023-01-16T02:02:30;99330.22;;;4.20;100.00
69318;BME280;56457;52.190;4.440;2023-01-16T02:03:51;99328.53;;;4.15;100.00
69318;BME280;56457;52.190;4.440;2023-01-16T02:04:52;99326.78;;;4.18;100.00
69318;BME280;56457;52.190;4.440;2023-01-16T02:05:57;99327.66;;;4.14;100.00
69318;BME280;56457;52.190;4.440;2023-01-16T02:07:04;99327.69;;;4.08;100.00
69318;BME280;56457;52.190;4.440;2023-01-16T02:08:05;99321.59;;;4.15;100.00
69318;BME280;56457;52.190;4.440;2023-01-16T02:09:06;99319.91;;;4.11;100.00
69318;BME280;56457;52.190;4.440;2023-01-16T02:11:31;99313.78;;;4.20;100.00
69318;BME280;56457;52.190;4.440;2023-01-16T02:12:32;99314.59;;;4.31;100.00
69318;BME280;56457;52.190;4.440;2023-01-16T02:13:33;99313.75;;;4.27;100.00
69318;BME280;56457;52.190;4.440;2023-01-16T02:14:37;99315.44;;;4.33;100.00
69318;BME280;56457;52.190;4.440;2023-01-16T02:15:38;99312.88;;;4.30;100.00
69318;BME280;56457;52.190;4.440;2023-01-16T02:17:17;99320.63;;;4.33;100.00
69318;BME280;56457;52.190;4.440;2023-01-16T02:18:36;99305.03;;;4.35;100.00
69318;BME280;56457;52.190;4.440;2023-01-16T02:26:46;99308.59;;;4.24;100.00
69318;BME280;56457;52.190;4.440;2023-01-16T02:30:02;99315.44;;;4.31;100.00
69318;BME280;56457;52.190;4.440;2023-01-16T02:34:31;99296.28;;;4.49;100.00
69318;BME280;56457;52.190;4.440;2023-01-16T02:37:45;99289.28;;;4.57;100.00
69318;BME280;56457;52.190;4.440;2023-01-16T02:39:01;99287.59;;;4.53;100.00
69318;BME280;56457;52.190;4.440;2023-01-16T02:40:23;99288.47;;;4.54;100.00
69318;BME280;56457;52.190;4.440;2023-01-16T02:41:37;99278.88;;;4.59;100.00
69318;BME280;56457;52.190;4.440;2023-01-16T02:42:44;99279.72;;;4.59;100.00
69318;BME280;56457;52.190;4.440;2023-01-16T02:46:48;99267.59;;;4.63;100.00
69318;BME280;56457;52.190;4.440;2023-01-16T02:48:06;99258.03;;;4.65;100.00
69318;BME280;56457;52.190;4.440;2023-01-16T02:49:10;99252.84;;;4.65;100.00
69318;BME280;56457;52.190;4.440;2023-01-16T02:52:35;99233.91;;;4.54;100.00
69318;BME280;56457;52.190;4.440;2023-01-16T02:53:50;99240.72;;;4.64;100.00
69318;BME280;56457;52.190;4.440;2023-01-16T02:54:55;99231.31;;;4.52;100.00
69318;BME280;56457;52.190;4.440;2023-01-16T02:56:05;99234.78;;;4.51;100.00
69318;BME280;56457;52.190;4.440;2023-01-16T02:58:09;99226.94;;;4.57;100.00
69318;BME280;56457;52.190;4.440;2023-01-16T02:59:11;99224.34;;;4.61;100.00
69318;BME280;56457;52.190;4.440;2023-01-16T03:00:14;99217.41;;;4.61;100.00
69318;BME280;56457;52.190;4.440;2023-01-16T03:01:19;99213.06;;;4.62;100.00
69318;BME280;56457;52.190;4.440;2023-01-16T03:02:19;99213.03;;;4.66;100.00
69318;BME280;56457;52.190;4.440;2023-01-16T03:04:43;99208.69;;;4.65;100.00
69318;BME280;56457;52.190;4.440;2023-01-16T03:05:44;99200.91;;;4.64;100.00
69318;BME280;56457;52.190;4.440;2023-01-16T03:06:49;99190.56;;;4.61;100.00
69318;BME280;56457;52.190;4.440;2023-01-16T03:11:12;99177.59;;;4.61;100.00
69318;BME280;56457;52.190;4.440;2023-01-16T03:14:19;99181.00;;;4.64;100.00
69318;BME280;56457;52.190;4.440;2023-01-16T03:15:36;99177.53;;;4.67;100.00
69318;BME280;56457;52.190;4.440;2023-01-16T03:16:51;99170.63;;;4.63;100.00
69318;BME280;56457;52.190;4.440;2023-01-16T03:21:45;99162.00;;;4.61;100.00
69318;BME280;56457;52.190;4.440;2023-01-16T03:23:58;99164.66;;;4.53;100.00
69318;BME280;56457;52.190;4.440;2023-01-16T03:26:27;99160.38;;;4.49;100.00
69318;BME280;56457;52.190;4.440;2023-01-16T03:27:32;99155.22;;;4.47;100.00
69318;BME280;56457;52.190;4.440;2023-01-16T03:29:50;99146.56;;;4.45;100.00
69318;BME280;56457;52.190;4.440;2023-01-16T03:32:11;99144.00;;;4.42;100.00
69318;BME280;56457;52.190;4.440;2023-01-16T03:34:21;99139.63;;;4.46;100.00
69318;BME280;56457;52.190;4.440;2023-01-16T03:35:29;99131.00;;;4.41;100.00
69318;BME280;56457;52.190;4.440;2023-01-16T03:36:37;99126.69;;;4.40;100.00
69318;BME280;56457;52.190;4.440;2023-01-16T03:37:41;99124.09;;;4.43;100.00
69318;BME280;56457;52.190;4.440;2023-01-16T03:38:44;99123.22;;;4.42;100.00
69318;BME280;56457;52.190;4.440;2023-01-16T03:39:51;99124.03;;;4.47;100.00
69318;BME280;56457;52.190;4.440;2023-01-16T03:40:53;99120.53;;;4.50;100.00
69318;BME280;56457;52.190;4.440;2023-01-16T03:41:59;99120.56;;;4.47;100.00
69318;BME280;56457;52.190;4.440;2023-01-16T03:44:06;99117.09;;;4.46;100.00
69318;BME280;56457;52.190;4.440;2023-01-16T03:45:13;99113.63;;;4.49;100.00
69318;BME280;56457;52.190;4.440;2023-01-16T03:46:16;99113.72;;;4.41;100.00
69318;BME280;56457;52.190;4.440;2023-01-16T03:47:23;99108.47;;;4.47;100.00
69318;BME280;56457;52.190;4.440;2023-01-16T03:48:29;99111.91;;;4.48;100.00
69318;BME280;56457;52.190;4.440;2023-01-16T03:49:37;99100.59;;;4.52;100.00
69318;BME280;56457;52.190;4.440;2023-01-16T03:50:38;99098.91;;;4.49;100.00
69318;BME280;56457;52.190;4.440;2023-01-16T03:51:41;99092.84;;;4.50;100.00
69318;BME280;56457;52.190;4.440;2023-01-16T03:52:44;99083.34;;;4.48;100.00
69318;BME280;56457;52.190;4.440;2023-01-16T03:53:50;99089.44;;;4.45;100.00
69318;BME280;56457;52.190;4.440;2023-01-16T03:54:57;99087.69;;;4.47;100.00
69318;BME280;56457;52.190;4.440;2023-01-16T03:56:11;99087.69;;;4.46;100.00
69318;BME280;56457;52.190;4.440;2023-01-16T03:58:21;99078.22;;;4.43;100.00
69318;BME280;56457;52.190;4.440;2023-01-16T03:59:23;99067.78;;;4.48;100.00
69318;BME280;56457;52.190;4.440;2023-01-16T04:00:25;99065.16;;;4.49;100.00
69318;BME280;56457;52.190;4.440;2023-01-16T04:01:39;99063.38;;;4.51;100.00
69318;BME280;56457;52.190;4.440;2023-01-16T04:02:50;99068.66;;;4.45;100.00
69318;BME280;56457;52.190;4.440;2023-01-16T04:04:54;99053.91;;;4.49;100.00
69318;BME280;56457;52.190;4.440;2023-01-16T04:05:29;99056.53;;;4.44;100.00
69318;BME280;56457;52.190;4.440;2023-01-16T04:06:44;99043.53;;;4.49;100.00
69318;BME280;56457;52.190;4.440;2023-01-16T04:07:52;99045.25;;;4.47;100.00
69318;BME280;56457;52.190;4.440;2023-01-16T04:08:55;99040.97;;;4.44;100.00
69318;BME280;56457;52.190;4.440;2023-01-16T04:09:57;99042.63;;;4.50;100.00
69318;BME280;56457;52.190;4.440;2023-01-16T04:10:58;99039.19;;;4.46;100.00
69318;BME280;56457;52.190;4.440;2023-01-16T04:11:58;99040.94;;;4.46;100.00
69318;BME280;56457;52.190;4.440;2023-01-16T04:13:10;99030.56;;;4.47;100.00
69318;BME280;56457;52.190;4.440;2023-01-16T04:14:11;99030.59;;;4.44;100.00
69318;BME280;56457;52.190;4.440;2023-01-16T04:15:12;99023.69;;;4.42;100.00
69318;BME280;56457;52.190;4.440;2023-01-16T04:16:12;99021.88;;;4.47;100.00
69318;BME280;56457;52.190;4.440;2023-01-16T04:17:15;99018.44;;;4.48;100.00
69318;BME280;56457;52.190;4.440;2023-01-16T04:18:16;99016.63;;;4.51;100.00
69318;BME280;56457;52.190;4.440;2023-01-16T04:19:17;99004.47;;;4.56;100.00
69318;BME280;56457;52.190;4.440;2023-01-16T04:20:19;99000.19;;;4.54;100.00
69318;BME280;56457;52.190;4.440;2023-01-16T04:21:20;98996.66;;;4.58;100.00
69318;BME280;56457;52.190;4.440;2023-01-16T04:22:26;98986.28;;;4.56;100.00
69318;BME280;56457;52.190;4.440;2023-01-16T04:23:26;98981.94;;;4.57;100.00
69318;BME280;56457;52.190;4.440;2023-01-16T04:24:27;98980.22;;;4.56;100.00
69318;BME280;56457;52.190;4.440;2023-01-16T04:25:27;98976.69;;;4.62;100.00
69318;BME280;56457;52.190;4.440;2023-01-16T04:26:28;98973.25;;;4.61;100.00
69318;BME280;56457;52.190;4.440;2023-01-16T04:27:29;98963.94;;;4.45;100.00
69318;BME280;56457;52.190;4.440;2023-01-16T04:28:29;98969.97;;;4.45;100.00
69318;BME280;56457;52.190;4.440;2023-01-16T04:29:30;98969.09;;;4.46;100.00
69318;BME280;56457;52.190;4.440;2023-01-16T04:30:30;98968.19;;;4.50;100.00
69318;BME280;56457;52.190;4.440;2023-01-16T04:31:31;98966.53;;;4.45;100.00
69318;BME280;56457;52.190;4.440;2023-01-16T04:32:31;98960.44;;;4.47;100.00
69318;BME280;56457;52.190;4.440;2023-01-16T04:33:32;98960.34;;;4.55;100.00
69318;BME280;56457;52.190;4.440;2023-01-16T04:34:33;98959.47;;;4.54;100.00
69318;BME280;56457;52.190;4.440;2023-01-16T04:35:34;98959.56;;;4.48;100.00
69318;BME280;56457;52.190;4.440;2023-01-16T04:36:34;98951.66;;;4.56;100.00
69318;BME280;56457;52.190;4.440;2023-01-16T04:37:35;98947.47;;;4.47;100.00
69318;BME280;56457;52.190;4.440;2023-01-16T04:38:36;98946.56;;;4.47;100.00
69318;BME280;56457;52.190;4.440;2023-01-16T04:39:36;98942.22;;;4.50;100.00
69318;BME280;56457;52.190;4.440;2023-01-16T04:40:37;98941.22;;;4.59;100.00
69318;BME280;56457;52.190;4.440;2023-01-16T04:41:38;98935.25;;;4.54;100.00
69318;BME280;56457;52.190;4.440;2023-01-16T04:42:39;98936.03;;;4.59;100.00
69318;BME280;56457;52.190;4.440;2023-01-16T04:43:39;98924.81;;;4.57;100.00
69318;BME280;56457;52.190;4.440;2023-01-16T04:44:40;98928.22;;;4.59;100.00
69318;BME280;56457;52.190;4.440;2023-01-16T04:45:40;98927.31;;;4.63;100.00
69318;BME280;56457;52.190;4.440;2023-01-16T04:46:41;98922.22;;;4.57;100.00
69318;BME280;56457;52.190;4.440;2023-01-16T04:47:47;98914.66;;;4.42;100.00
69318;BME280;56457;52.190;4.440;2023-01-16T04:48:48;98912.78;;;4.50;100.00
69318;BME280;56457;52.190;4.440;2023-01-16T04:49:49;98908.44;;;4.52;100.00
69318;BME280;56457;52.190;4.440;2023-01-16T04:50:49;98908.50;;;4.46;100.00
69318;BME280;56457;52.190;4.440;2023-01-16T04:51:50;98899.00;;;4.45;100.00
69318;BME280;56457;52.190;4.440;2023-01-16T04:52:51;98894.59;;;4.51;100.00
69318;BME280;56457;52.190;4.440;2023-01-16T04:53:52;98892.84;;;4.53;100.00
69318;BME280;56457;52.190;4.440;2023-01-16T04:54:52;98882.47;;;4.52;100.00
69318;BME280;56457;52.190;4.440;2023-01-16T04:55:52;98884.22;;;4.50;100.00
69318;BME280;56457;52.190;4.440;2023-01-16T04:56:53;98881.66;;;4.48;100.00
69318;BME280;56457;52.190;4.440;2023-01-16T04:57:53;98879.06;;;4.48;100.00
69318;BME280;56457;52.190;4.440;2023-01-16T04:58:54;98875.59;;;4.49;100.00
69318;BME280;56457;52.190;4.440;2023-01-16T04:59:55;98867.84;;;4.45;100.00
69318;BME280;56457;52.190;4.440;2023-01-16T05:00:56;98868.75;;;4.44;100.00
69318;BME280;56457;52.190;4.440;2023-01-16T05:01:56;98862.63;;;4.46;100.00
69318;BME280;56457;52.190;4.440;2023-01-16T05:02:57;98862.56;;;4.51;100.00
69318;BME280;56457;52.190;4.440;2023-01-16T05:03:58;98863.41;;;4.53;100.00
69318;BME280;56457;52.190;4.440;2023-01-16T05:04:58;98857.47;;;4.45;100.00
69318;BME280;56457;52.190;4.440;2023-01-16T05:05:59;98849.63;;;4.49;100.00
69318;BME280;56457;52.190;4.440;2023-01-16T05:06:59;98844.47;;;4.45;100.00
69318;BME280;56457;52.190;4.440;2023-01-16T05:08:00;98846.09;;;4.52;100.00
69318;BME280;56457;52.190;4.440;2023-01-16T05:09:16;98839.06;;;4.60;100.00
69318;BME280;56457;52.190;4.440;2023-01-16T05:10:16;98827.81;;;4.58;100.00
69318;BME280;56457;52.190;4.440;2023-01-16T05:11:17;98827.94;;;4.50;100.00
69318;BME280;56457;52.190;4.440;2023-01-16T05:12:18;98827.81;;;4.58;100.00
69318;BME280;56457;52.190;4.440;2023-01-16T05:13:18;98816.66;;;4.53;100.00
69318;BME280;56457;52.190;4.440;2023-01-16T05:14:19;98824.34;;;4.61;100.00
69318;BME280;56457;52.190;4.440;2023-01-16T05:15:20;98816.63;;;4.56;100.00
69318;BME280;56457;52.190;4.440;2023-01-16T05:16:20;98813.09;;;4.60;100.00
69318;BME280;56457;52.190;4.440;2023-01-16T05:17:21;98810.66;;;4.49;100.00
69318;BME280;56457;52.190;4.440;2023-01-16T05:18:25;98811.41;;;4.56;100.00
69318;BME280;56457;52.190;4.440;2023-01-16T05:19:25;98800.13;;;4.58;100.00
69318;BME280;56457;52.190;4.440;2023-01-16T05:20:26;98799.47;;;4.44;100.00
69318;BME280;56457;52.190;4.440;2023-01-16T05:21:27;98786.50;;;4.44;100.00
69318;BME280;56457;52.190;4.440;2023-01-16T05:22:27;98787.31;;;4.46;100.00
69318;BME280;56457;52.190;4.440;2023-01-16T05:23:28;98783.84;;;4.49;100.00
69318;BME280;56457;52.190;4.440;2023-01-16T05:24:28;98776.09;;;4.47;100.00
69318;BME280;56457;52.190;4.440;2023-01-16T05:25:29;98776.84;;;4.54;100.00
69318;BME280;56457;52.190;4.440;2023-01-16T05:26:29;98771.53;;;4.58;100.00
69318;BME280;56457;52.190;4.440;2023-01-16T05:27:30;98776.91;;;4.49;100.00
69318;BME280;56457;52.190;4.440;2023-01-16T05:28:30;98765.84;;;4.37;100.00
69318;BME280;56457;52.190;4.440;2023-01-16T05:29:31;98760.69;;;4.33;100.00
69318;BME280;56457;52.190;4.440;2023-01-16T05:30:32;98760.72;;;4.32;100.00
69318;BME280;56457;52.190;4.440;2023-01-16T05:31:33;98757.22;;;4.35;100.00
69318;BME280;56457;52.190;4.440;2023-01-16T05:32:33;98755.34;;;4.44;100.00
69318;BME280;56457;52.190;4.440;2023-01-16T05:33:34;98745.09;;;4.37;100.00
69318;BME280;56457;52.190;4.440;2023-01-16T05:34:34;98747.72;;;4.33;100.00
69318;BME280;56457;52.190;4.440;2023-01-16T05:35:35;98739.03;;;4.36;100.00
69318;BME280;56457;52.190;4.440;2023-01-16T05:36:35;98740.72;;;4.39;100.00
69318;BME280;56457;52.190;4.440;2023-01-16T05:37:36;98738.19;;;4.34;100.00
69318;BME280;56457;52.190;4.440;2023-01-16T05:38:36;98732.25;;;4.27;100.00
69318;BME280;56457;52.190;4.440;2023-01-16T05:39:37;98733.94;;;4.30;100.00
69318;BME280;56457;52.190;4.440;2023-01-16T05:40:37;98722.94;;;4.14;100.00
69318;BME280;56457;52.190;4.440;2023-01-16T05:41:38;98733.00;;;4.34;100.00
69318;BME280;56457;52.190;4.440;2023-01-16T05:42:41;98727.72;;;4.40;100.00
69318;BME280;56457;52.190;4.440;2023-01-16T05:43:42;98730.31;;;4.40;100.00
69318;BME280;56457;52.190;4.440;2023-01-16T05:44:42;98717.56;;;4.26;100.00
69318;BME280;56457;52.190;4.440;2023-01-16T05:45:43;98717.53;;;4.29;100.00
69318;BME280;56457;52.190;4.440;2023-01-16T05:46:44;98708.88;;;4.29;100.00
69318;BME280;56457;52.190;4.440;2023-01-16T05:47:44;98703.59;;;4.35;100.00
69318;BME280;56457;52.190;4.440;2023-01-16T05:48:45;98705.13;;;4.45;100.00
69318;BME280;56457;52.190;4.440;2023-01-16T05:49:45;98701.66;;;4.45;100.00
69318;BME280;56457;52.190;4.440;2023-01-16T05:50:45;98704.22;;;4.48;100.00
69318;BME280;56457;52.190;4.440;2023-01-16T05:51:46;98698.97;;;4.51;100.00
69318;BME280;56457;52.190;4.440;2023-01-16T05:52:47;98688.69;;;4.45;100.00
69318;BME280;56457;52.190;4.440;2023-01-16T05:53:50;98696.41;;;4.49;100.00
69318;BME280;56457;52.190;4.440;2023-01-16T05:54:52;98683.47;;;4.48;100.00
69318;BME280;56457;52.190;4.440;2023-01-16T05:55:52;98694.69;;;4.48;100.00
69318;BME280;56457;52.190;4.440;2023-01-16T05:56:53;98680.75;;;4.54;100.00
69318;BME280;56457;52.190;4.440;2023-01-16T05:57:54;98685.09;;;4.52;100.00
69318;BME280;56457;52.190;4.440;2023-01-16T05:58:54;98681.59;;;4.54;100.00
69318;BME280;56457;52.190;4.440;2023-01-16T05:59:57;98680.69;;;4.57;100.00
69318;BME280;56457;52.190;4.440;2023-01-16T06:00:58;98672.97;;;4.54;100.00
69318;BME280;56457;52.190;4.440;2023-01-16T06:01:58;98674.59;;;4.58;100.00
69318;BME280;56457;52.190;4.440;2023-01-16T06:02:58;98677.94;;;4.65;100.00
69318;BME280;56457;52.190;4.440;2023-01-16T06:03:59;98670.25;;;4.60;100.00
69318;BME280;56457;52.190;4.440;2023-01-16T06:05:00;98668.50;;;4.61;100.00
69318;BME280;56457;52.190;4.440;2023-01-16T06:06:00;98667.59;;;4.63;100.00
69318;BME280;56457;52.190;4.440;2023-01-16T06:07:01;98663.31;;;4.61;100.00
69318;BME280;56457;52.190;4.440;2023-01-16T06:08:02;98668.66;;;4.51;100.00
69318;BME280;56457;52.190;4.440;2023-01-16T06:09:03;98666.09;;;4.50;100.00
69318;BME280;56457;52.190;4.440;2023-01-16T06:10:04;98651.34;;;4.52;100.00
69318;BME280;56457;52.190;4.440;2023-01-16T06:11:05;98658.97;;;4.61;100.00
69318;BME280;56457;52.190;4.440;2023-01-16T06:12:05;98652.13;;;4.57;100.00
69318;BME280;56457;52.190;4.440;2023-01-16T06:13:08;98653.03;;;4.53;100.00
69318;BME280;56457;52.190;4.440;2023-01-16T06:14:08;98641.81;;;4.54;100.00